createdAt,value
2023-04-16T00:02:15.976Z,99267.25
2023-04-16T00:05:01.283Z,99270.78
2023-04-16T00:07:45.978Z,99268.59
2023-04-16T00:10:31.049Z,99267.03
2023-04-16T00:13:15.849Z,99265.09
2023-04-16T00:16:00.986Z,99259.97
2023-04-16T00:18:46.126Z,99255.81
2023-04-16T00:21:31.120Z,99258.19
2023-04-16T00:24:15.976Z,99265.09
2023-04-16T00:27:01.063Z,99264.88
2023-04-16T00:29:45.899Z,99270.56
2023-04-16T00:32:31.154Z,99268.81
2023-04-16T00:35:16.108Z,99269.81
2023-04-16T00:38:00.999Z,99263.69
2023-04-16T00:40:46.035Z,99262.91
2023-04-16T00:43:31.158Z,99272.16
2023-04-16T00:46:18.102Z,99278.25
2023-04-16T00:49:03.748Z,99269.81
2023-04-16T00:51:48.731Z,99268.81
2023-04-16T00:54:33.872Z,99263.69
2023-04-16T00:57:20.531Z,99275.13
2023-04-16T01:00:06.350Z,99274.34
2023-04-16T01:02:51.965Z,99268.63
2023-04-16T01:05:36.981Z,99275.13
2023-04-16T01:08:22.321Z,99272.38
2023-04-16T01:11:07.064Z,99271.78
2023-04-16T01:13:52.104Z,99274.91
2023-04-16T01:16:37.078Z,99279.66
2023-04-16T01:19:21.907Z,99271.97
2023-04-16T01:22:06.899Z,99274.72
2023-04-16T01:24:52.371Z,99278.88
2023-04-16T01:27:37.250Z,99272.78
2023-04-16T01:30:21.701Z,99268.41
2023-04-16T01:33:17.907Z,99269.03
2023-04-16T01:36:02.607Z,99265.69
2023-04-16T01:38:47.539Z,99264.72
2023-04-16T01:41:32.236Z,99259.41
2023-04-16T01:44:17.377Z,99253.88
2023-04-16T01:47:02.422Z,99259.19
2023-04-16T01:49:47.662Z,99268.66
2023-04-16T01:52:32.770Z,99262.34
2023-04-16T01:55:17.726Z,99258.22
2023-04-16T01:58:02.948Z,99261.19
2023-04-16T02:00:51.903Z,99257.81
2023-04-16T02:03:37.405Z,99258.22
2023-04-16T02:06:22.428Z,99260.00
2023-04-16T02:09:07.514Z,99253.69
2023-04-16T02:11:52.710Z,99258.03
2023-04-16T02:14:37.553Z,99257.84
2023-04-16T02:17:22.514Z,99263.75
2023-04-16T02:20:10.278Z,99263.75
2023-04-16T02:23:09.705Z,99258.66
2023-04-16T02:25:54.345Z,99266.31
2023-04-16T02:28:39.149Z,99265.34
2023-04-16T02:31:27.865Z,99269.47
2023-04-16T02:34:14.385Z,99266.31
2023-04-16T02:36:59.780Z,99263.31
2023-04-16T02:39:45.763Z,99268.25
2023-04-16T02:42:31.854Z,99277.53
2023-04-16T02:45:17.042Z,99271.63
2023-04-16T02:48:02.008Z,99272.22
2023-04-16T02:50:46.785Z,99275.56
2023-04-16T02:53:31.224Z,99283.03
2023-04-16T02:56:15.778Z,99278.13
2023-04-16T02:59:00.690Z,99279.50
2023-04-16T03:01:45.916Z,99273.81
2023-04-16T03:04:32.439Z,99273.81
2023-04-16T03:07:17.773Z,99276.72
2023-04-16T03:10:02.225Z,99283.25
2023-04-16T03:12:47.355Z,99292.47
2023-04-16T03:15:32.371Z,99300.38
2023-04-16T03:18:17.257Z,99297.19
2023-04-16T03:21:02.185Z,99292.88
2023-04-16T03:23:47.257Z,99303.09
2023-04-16T03:26:32.102Z,99310.16
2023-04-16T03:29:16.658Z,99303.28
2023-04-16T03:32:02.205Z,99309.00
2023-04-16T03:34:47.098Z,99316.69
2023-04-16T03:37:32.325Z,99312.53
2023-04-16T03:40:17.184Z,99318.44
2023-04-16T03:43:02.193Z,99320.03
2023-04-16T03:45:47.314Z,99321.63
2023-04-16T03:48:32.021Z,99320.44
2023-04-16T03:51:16.928Z,99320.44
2023-04-16T03:54:01.894Z,99332.06
2023-04-16T03:56:47.463Z,99331.69
2023-04-16T03:59:32.309Z,99327.94
2023-04-16T04:02:17.815Z,99339.72
2023-04-16T04:05:02.963Z,99337.00
2023-04-16T04:07:47.910Z,99350.38
2023-04-16T04:10:33.543Z,99349.00
2023-04-16T04:13:19.292Z,99348.44
2023-04-16T04:16:05.143Z,99354.13
2023-04-16T04:18:50.290Z,99356.31
2023-04-16T04:21:35.189Z,99363.59
2023-04-16T04:24:21.796Z,99350.59
2023-04-16T04:27:06.714Z,99373.63
2023-04-16T04:29:51.251Z,99363.19
2023-04-16T04:32:35.834Z,99361.81
2023-04-16T04:35:20.968Z,99355.91
2023-04-16T04:38:06.240Z,99357.09
2023-04-16T04:40:52.246Z,99362.44
2023-04-16T04:43:38.867Z,99358.88
2023-04-16T04:46:24.528Z,99370.09
2023-04-16T04:49:09.974Z,99364.38
2023-04-16T04:51:55.468Z,99363.00
2023-04-16T04:54:41.155Z,99374.44
2023-04-16T04:57:26.320Z,99374.41
2023-04-16T05:00:12.725Z,99371.88
2023-04-16T05:03:05.625Z,99371.28
2023-04-16T05:05:50.715Z,99380.34
2023-04-16T05:08:35.825Z,99365.94
2023-04-16T05:11:20.828Z,99375.97
2023-04-16T05:14:05.454Z,99383.66
2023-04-16T05:16:49.902Z,99381.66
2023-04-16T05:19:34.997Z,99378.09
2023-04-16T05:22:20.154Z,99378.84
2023-04-16T05:25:05.151Z,99369.94
2023-04-16T05:27:49.700Z,99378.91
2023-04-16T05:30:34.891Z,99385.72
2023-04-16T05:33:20.337Z,99379.50
2023-04-16T05:36:05.345Z,99381.97
2023-04-16T05:38:50.318Z,99386.63
2023-04-16T05:41:35.390Z,99389.28
2023-04-16T05:44:20.330Z,99398.75
2023-04-16T05:47:06.723Z,99396.72
2023-04-16T05:49:51.274Z,99399.47
2023-04-16T05:52:36.041Z,99400.09
2023-04-16T05:55:20.930Z,99400.41
2023-04-16T05:58:05.543Z,99408.00
2023-04-16T06:00:50.763Z,99411.00
2023-04-16T06:03:35.688Z,99411.50
2023-04-16T06:06:20.631Z,99412.22
2023-04-16T06:09:05.531Z,99398.84
2023-04-16T06:11:50.490Z,99401.53
2023-04-16T06:14:35.639Z,99407.44
2023-04-16T06:17:20.778Z,99408.72
2023-04-16T06:20:06.585Z,99416.94
2023-04-16T06:22:51.492Z,99412.47
2023-04-16T06:25:36.480Z,99422.00
2023-04-16T06:28:21.621Z,99417.47
2023-04-16T06:31:06.515Z,99415.03
2023-04-16T06:33:51.506Z,99412.66
2023-04-16T06:36:37.036Z,99411.25
2023-04-16T06:39:21.582Z,99416.38
2023-04-16T06:42:06.928Z,99413.03
2023-04-16T06:44:51.628Z,99417.22
2023-04-16T06:47:36.337Z,99425.00
2023-04-16T06:50:22.774Z,99435.63
2023-04-16T06:53:08.087Z,99431.94
2023-04-16T06:55:52.839Z,99437.03
2023-04-16T06:58:37.738Z,99435.97
2023-04-16T07:01:22.567Z,99446.97
2023-04-16T07:04:07.366Z,99438.56
2023-04-16T07:06:52.540Z,99437.75
2023-04-16T07:09:37.439Z,99437.06
2023-04-16T07:12:22.945Z,99430.25
2023-04-16T07:15:08.792Z,99434.81
2023-04-16T07:17:53.605Z,99433.88
2023-04-16T07:20:38.637Z,99439.91
2023-04-16T07:23:23.685Z,99436.00
2023-04-16T07:26:09.065Z,99438.72
2023-04-16T07:28:53.612Z,99443.81
2023-04-16T07:31:38.761Z,99444.66
2023-04-16T07:34:23.545Z,99441.22
2023-04-16T07:37:09.071Z,99438.16
2023-04-16T07:39:57.369Z,99447.44
2023-04-16T07:42:42.755Z,99446.75
2023-04-16T07:45:27.573Z,99459.28
2023-04-16T07:48:12.520Z,99463.06
2023-04-16T07:50:57.698Z,99457.06
2023-04-16T07:53:42.937Z,99453.50
2023-04-16T07:56:27.396Z,99463.97
2023-04-16T07:59:21.699Z,99461.75
2023-04-16T08:02:13.820Z,99469.16
2023-04-16T08:04:59.969Z,99463.69
2023-04-16T08:07:44.428Z,99470.75
2023-04-16T08:10:29.097Z,99465.13
2023-04-16T08:13:14.282Z,99465.88
2023-04-16T08:15:59.301Z,99471.34
2023-04-16T08:18:44.244Z,99467.41
2023-04-16T08:21:30.153Z,99466.66
2023-04-16T08:24:14.955Z,99471.00
2023-04-16T08:27:08.142Z,99470.00
2023-04-16T08:30:02.570Z,99466.63
2023-04-16T08:32:49.942Z,99472.38
2023-04-16T08:35:35.279Z,99479.63
2023-04-16T08:38:20.151Z,99470.75
2023-04-16T08:41:08.667Z,99468.75
2023-04-16T08:43:56.215Z,99472.16
2023-04-16T08:46:43.453Z,99481.47
2023-04-16T08:49:29.380Z,99475.75
2023-04-16T08:52:19.267Z,99480.59
2023-04-16T08:55:09.457Z,99477.00
2023-04-16T08:57:57.902Z,99489.03
2023-04-16T09:00:43.326Z,99488.69
2023-04-16T09:03:31.521Z,99492.38
2023-04-16T09:06:17.698Z,99482.84
2023-04-16T09:09:04.199Z,99489.56
2023-04-16T09:11:53.053Z,99492.13
2023-04-16T09:14:41.261Z,99481.38
2023-04-16T09:17:26.569Z,99493.88
2023-04-16T09:20:12.202Z,99496.69
2023-04-16T09:22:56.976Z,99494.91
2023-04-16T09:25:42.103Z,99494.72
2023-04-16T09:28:44.993Z,99497.88
2023-04-16T09:31:30.137Z,99503.81
2023-04-16T09:34:15.204Z,99496.28
2023-04-16T09:37:17.098Z,99494.69
2023-04-16T09:40:04.330Z,99498.00
2023-04-16T09:42:49.925Z,99495.63
2023-04-16T09:45:54.896Z,99492.84
2023-04-16T09:48:40.062Z,99497.94
2023-04-16T09:51:26.256Z,99500.63
2023-04-16T09:54:11.149Z,99509.00
2023-04-16T09:56:56.642Z,99495.66
2023-04-16T09:59:41.399Z,99512.84
2023-04-16T10:02:30.572Z,99505.06
2023-04-16T10:05:18.015Z,99508.66
2023-04-16T10:08:10.868Z,99512.69
2023-04-16T10:10:56.088Z,99508.22
2023-04-16T10:13:40.723Z,99513.59
2023-04-16T10:16:26.097Z,99513.91
2023-04-16T10:19:11.171Z,99517.63
2023-04-16T10:21:57.750Z,99517.41
2023-04-16T10:24:43.324Z,99522.34
2023-04-16T10:27:29.066Z,99523.84
2023-04-16T10:30:15.315Z,99518.53
2023-04-16T10:33:03.571Z,99527.44
2023-04-16T10:35:57.927Z,99519.38
2023-04-16T10:38:52.793Z,99519.16
2023-04-16T10:41:38.167Z,99513.28
2023-04-16T10:44:24.385Z,99511.53
2023-04-16T10:47:13.576Z,99513.78
2023-04-16T10:49:58.399Z,99511.94
2023-04-16T10:52:43.386Z,99514.31
2023-04-16T10:55:28.344Z,99511.41
2023-04-16T10:58:29.712Z,99507.47
2023-04-16T11:01:15.883Z,99506.47
2023-04-16T11:04:21.192Z,99514.44
2023-04-16T11:07:15.765Z,99503.84
2023-04-16T11:10:04.519Z,99514.19
2023-04-16T11:12:50.078Z,99505.09
2023-04-16T11:15:34.811Z,99501.94
2023-04-16T11:18:19.979Z,99506.13
2023-04-16T11:21:08.604Z,99507.44
2023-04-16T11:23:53.509Z,99504.09
2023-04-16T11:26:38.133Z,99505.41
2023-04-16T11:29:23.345Z,99523.78
2023-04-16T11:32:08.227Z,99517.41
2023-04-16T11:34:53.438Z,99521.53
2023-04-16T11:37:38.690Z,99526.28
2023-04-16T11:40:23.497Z,99517.41
2023-04-16T11:43:15.957Z,99522.84
2023-04-16T11:46:16.254Z,99525.50
2023-04-16T11:49:09.554Z,99525.78
2023-04-16T11:51:55.447Z,99530.84
2023-04-16T11:54:40.456Z,99537.69
2023-04-16T11:57:29.847Z,99532.47
2023-04-16T12:00:14.739Z,99523.31
2023-04-16T12:02:59.487Z,99528.25
2023-04-16T12:05:44.431Z,99524.91
2023-04-16T12:08:32.754Z,99536.00
2023-04-16T12:11:17.889Z,99531.38
2023-04-16T12:14:10.880Z,99531.78
2023-04-16T12:16:56.510Z,99533.00
2023-04-16T12:19:51.913Z,99539.41
2023-04-16T12:22:38.609Z,99535.69
2023-04-16T12:25:24.115Z,99530.47
2023-04-16T12:28:08.764Z,99529.28
2023-04-16T12:30:53.913Z,99527.75
2023-04-16T12:33:38.997Z,99536.16
2023-04-16T12:36:24.042Z,99532.19
2023-04-16T12:39:10.583Z,99537.31
2023-04-16T12:41:55.571Z,99540.84
2023-04-16T12:44:40.470Z,99535.31
2023-04-16T12:47:25.465Z,99545.53
2023-04-16T12:50:10.511Z,99536.91
2023-04-16T12:52:55.977Z,99547.66
2023-04-16T12:55:41.124Z,99544.09
2023-04-16T12:58:26.380Z,99539.03
2023-04-16T13:01:11.373Z,99540.00
2023-04-16T13:03:56.421Z,99539.47
2023-04-16T13:06:41.275Z,99536.09
2023-04-16T13:09:26.579Z,99540.19
2023-04-16T13:12:11.675Z,99540.56
2023-04-16T13:14:56.479Z,99534.13
2023-04-16T13:17:41.522Z,99539.84
2023-04-16T13:20:26.541Z,99544.47
2023-04-16T13:23:11.795Z,99540.44
2023-04-16T13:25:56.580Z,99541.75
2023-04-16T13:28:41.562Z,99550.16
2023-04-16T13:31:26.731Z,99545.81
2023-04-16T13:34:11.636Z,99538.16
2023-04-16T13:36:56.633Z,99539.38
2023-04-16T13:39:41.615Z,99543.19
2023-04-16T13:42:27.805Z,99531.63
2023-04-16T13:45:12.721Z,99534.88
2023-04-16T13:47:57.652Z,99536.00
2023-04-16T13:50:42.541Z,99544.41
2023-04-16T13:53:27.423Z,99543.59
2023-04-16T13:56:12.108Z,99539.75
2023-04-16T13:58:57.099Z,99544.75
2023-04-16T14:01:42.248Z,99551.78
2023-04-16T14:04:27.132Z,99548.56
2023-04-16T14:07:12.296Z,99561.19
2023-04-16T14:09:57.135Z,99557.16
2023-04-16T14:12:43.324Z,99553.03
2023-04-16T14:15:29.325Z,99543.84
2023-04-16T14:18:14.199Z,99552.63
2023-04-16T14:21:01.523Z,99549.75
2023-04-16T14:23:46.384Z,99543.50
2023-04-16T14:26:31.388Z,99555.44
2023-04-16T14:29:16.127Z,99555.13
2023-04-16T14:32:01.158Z,99555.13
2023-04-16T14:34:46.228Z,99555.91
2023-04-16T14:37:31.198Z,99551.94
2023-04-16T14:40:16.320Z,99545.66
2023-04-16T14:43:00.878Z,99550.03
2023-04-16T14:45:46.217Z,99545.66
2023-04-16T14:48:31.396Z,99547.25
2023-04-16T14:51:15.961Z,99551.34
2023-04-16T14:54:00.923Z,99554.00
2023-04-16T14:56:46.820Z,99557.66
2023-04-16T14:59:31.869Z,99552.81
2023-04-16T15:02:17.027Z,99554.25
2023-04-16T15:05:01.991Z,99544.28
2023-04-16T15:07:46.986Z,99554.59
2023-04-16T15:10:32.292Z,99559.13
2023-04-16T15:13:17.581Z,99551.16
2023-04-16T15:16:04.267Z,99543.78
2023-04-16T15:18:50.322Z,99547.91
2023-04-16T15:21:35.281Z,99540.19
2023-04-16T15:24:20.543Z,99547.13
2023-04-16T15:27:06.318Z,99552.28
2023-04-16T15:29:53.262Z,99550.28
2023-04-16T15:32:37.828Z,99548.16
2023-04-16T15:35:22.382Z,99534.56
2023-04-16T15:38:07.713Z,99550.47
2023-04-16T15:40:52.425Z,99543.94
2023-04-16T15:43:38.353Z,99548.34
2023-04-16T15:46:23.633Z,99555.38
2023-04-16T15:49:08.481Z,99551.34
2023-04-16T15:51:53.512Z,99550.59
2023-04-16T15:54:38.346Z,99553.22
2023-04-16T15:57:23.186Z,99549.72
2023-04-16T16:00:16.473Z,99556.94
2023-04-16T16:03:02.166Z,99560.13
2023-04-16T16:05:47.805Z,99558.78
2023-04-16T16:08:37.579Z,99562.94
2023-04-16T16:11:22.587Z,99564.34
2023-04-16T16:14:07.714Z,99558.06
2023-04-16T16:16:52.676Z,99564.00
2023-04-16T16:19:36.972Z,99562.84
2023-04-16T16:22:23.063Z,99567.97
2023-04-16T16:25:09.514Z,99567.19
2023-04-16T16:27:54.311Z,99568.63
2023-04-16T16:30:40.105Z,99569.84
2023-04-16T16:33:25.234Z,99573.25
2023-04-16T16:36:10.868Z,99577.25
2023-04-16T16:38:56.361Z,99575.50
2023-04-16T16:41:41.519Z,99574.72
2023-04-16T16:44:26.912Z,99580.50
2023-04-16T16:47:12.166Z,99584.69
2023-04-16T16:49:57.502Z,99576.59
2023-04-16T16:52:42.409Z,99578.03
2023-04-16T16:55:27.337Z,99581.00
2023-04-16T16:58:12.306Z,99581.66
2023-04-16T17:00:58.158Z,99588.00
2023-04-16T17:03:43.226Z,99589.59
2023-04-16T17:06:28.511Z,99590.81
2023-04-16T17:09:13.377Z,99584.50
2023-04-16T17:11:58.483Z,99591.22
2023-04-16T17:14:43.632Z,99587.91
2023-04-16T17:17:28.700Z,99587.91
2023-04-16T17:20:13.716Z,99601.97
2023-04-16T17:22:58.867Z,99600.00
2023-04-16T17:25:43.664Z,99598.25
2023-04-16T17:28:28.637Z,99604.03
2023-04-16T17:31:14.547Z,99611.13
2023-04-16T17:33:59.290Z,99615.91
2023-04-16T17:36:46.553Z,99605.63
2023-04-16T17:39:31.299Z,99616.09
2023-04-16T17:42:16.858Z,99612.56
2023-04-16T17:45:02.460Z,99609.41
2023-04-16T17:47:47.274Z,99611.38
2023-04-16T17:50:32.200Z,99607.25
2023-04-16T17:53:17.052Z,99618.72
2023-04-16T17:56:02.158Z,99618.09
2023-04-16T17:58:46.794Z,99614.78
2023-04-16T18:01:31.791Z,99615.19
2023-04-16T18:04:17.434Z,99620.31
2023-04-16T18:07:02.890Z,99623.69
2023-04-16T18:09:47.719Z,99621.69
2023-04-16T18:12:32.186Z,99620.69
2023-04-16T18:15:16.819Z,99623.84
2023-04-16T18:18:01.679Z,99623.69
2023-04-16T18:20:46.835Z,99629.41
2023-04-16T18:23:31.779Z,99634.53
2023-04-16T18:26:20.439Z,99631.38
2023-04-16T18:29:06.894Z,99630.38
2023-04-16T18:31:51.514Z,99637.28
2023-04-16T18:34:36.350Z,99630.00
2023-04-16T18:37:21.195Z,99642.06
2023-04-16T18:40:06.885Z,99640.47
2023-04-16T18:42:51.667Z,99640.09
2023-04-16T18:45:36.602Z,99635.38
2023-04-16T18:48:21.745Z,99631.84
2023-04-16T18:51:07.427Z,99633.00
2023-04-16T18:53:52.203Z,99635.97
2023-04-16T18:56:37.058Z,99626.09
2023-04-16T18:59:21.977Z,99622.94
2023-04-16T19:02:07.015Z,99629.06
2023-04-16T19:04:52.190Z,99623.56
2023-04-16T19:07:37.900Z,99618.03
2023-04-16T19:10:22.387Z,99621.78
2023-04-16T19:13:07.407Z,99630.47
2023-04-16T19:15:57.812Z,99624.97
2023-04-16T19:18:42.687Z,99634.44
2023-04-16T19:21:27.642Z,99626.72
2023-04-16T19:24:12.667Z,99630.88
2023-04-16T19:26:57.878Z,99632.66
2023-04-16T19:29:42.923Z,99619.22
2023-04-16T19:32:27.817Z,99624.16
2023-04-16T19:35:12.978Z,99617.25
2023-04-16T19:37:57.981Z,99618.81
2023-04-16T19:40:46.284Z,99603.41
2023-04-16T19:43:31.356Z,99612.69
2023-04-16T19:46:17.155Z,99608.38
2023-04-16T19:49:02.925Z,99607.94
2023-04-16T19:51:48.070Z,99608.53
2023-04-16T19:54:34.166Z,99604.59
2023-04-16T19:57:18.843Z,99611.28
2023-04-16T20:00:07.360Z,99602.03
2023-04-16T20:02:52.861Z,99607.53
2023-04-16T20:05:37.795Z,99614.25
2023-04-16T20:08:22.680Z,99610.31
2023-04-16T20:11:07.939Z,99611.28
2023-04-16T20:13:53.722Z,99613.69
2023-04-16T20:16:38.711Z,99612.50
2023-04-16T20:19:25.525Z,99612.88
2023-04-16T20:22:10.493Z,99623.16
2023-04-16T20:24:55.711Z,99623.59
2023-04-16T20:27:40.632Z,99618.63
2023-04-16T20:30:28.645Z,99614.09
2023-04-16T20:33:13.372Z,99621.78
2023-04-16T20:35:58.521Z,99618.44
2023-04-16T20:38:43.051Z,99621.03
2023-04-16T20:41:29.368Z,99620.41
2023-04-16T20:44:18.263Z,99619.63
2023-04-16T20:47:03.482Z,99622.00
2023-04-16T20:49:48.759Z,99618.44
2023-04-16T20:52:33.744Z,99623.59
2023-04-16T20:55:18.804Z,99614.09
2023-04-16T20:58:03.608Z,99623.78
2023-04-16T21:00:52.846Z,99612.91
2023-04-16T21:03:37.896Z,99611.94
2023-04-16T21:06:22.884Z,99609.38
2023-04-16T21:09:08.725Z,99615.88
2023-04-16T21:11:53.699Z,99619.03
2023-04-16T21:14:38.708Z,99619.06
2023-04-16T21:17:23.138Z,99622.22
2023-04-16T21:20:12.863Z,99612.34
2023-04-16T21:22:57.996Z,99614.09
2023-04-16T21:25:43.114Z,99615.69
2023-04-16T21:28:27.945Z,99613.13
2023-04-16T21:31:12.859Z,99606.63
2023-04-16T21:33:57.761Z,99609.19
2023-04-16T21:36:42.791Z,99607.59
2023-04-16T21:39:30.205Z,99613.91
2023-04-16T21:42:14.809Z,99604.44
2023-04-16T21:44:59.380Z,99606.22
2023-04-16T21:47:44.392Z,99603.88
2023-04-16T21:50:29.299Z,99602.88
2023-04-16T21:53:14.559Z,99609.59
2023-04-16T21:55:59.856Z,99609.78
2023-04-16T21:58:45.017Z,99607.44
2023-04-16T22:01:29.911Z,99602.47
2023-04-16T22:04:14.968Z,99601.91
2023-04-16T22:07:02.605Z,99599.34
2023-04-16T22:09:47.619Z,99609.41
2023-04-16T22:12:32.469Z,99598.75
2023-04-16T22:15:17.427Z,99595.59
2023-04-16T22:18:02.336Z,99600.34
2023-04-16T22:20:50.092Z,99595.22
2023-04-16T22:23:34.979Z,99595.97
2023-04-16T22:26:20.288Z,99600.13
2023-04-16T22:29:05.257Z,99599.91
2023-04-16T22:31:50.332Z,99590.44
2023-04-16T22:34:35.258Z,99589.88
2023-04-16T22:37:20.370Z,99590.66
2023-04-16T22:40:07.799Z,99586.91
2023-04-16T22:42:52.381Z,99583.34
2023-04-16T22:45:37.523Z,99591.25
2023-04-16T22:48:22.384Z,99580.59
2023-04-16T22:51:08.218Z,99569.34
2023-04-16T22:53:53.183Z,99574.06
2023-04-16T22:56:38.364Z,99575.25
2023-04-16T22:59:23.671Z,99574.25
2023-04-16T23:02:08.233Z,99565.38
2023-04-16T23:04:53.276Z,99572.09
2023-04-16T23:07:37.943Z,99568.72
2023-04-16T23:10:22.758Z,99578.19
2023-04-16T23:13:07.045Z,99579.78
2023-04-16T23:15:52.057Z,99574.06
2023-04-16T23:18:37.000Z,99577.44
2023-04-16T23:21:22.375Z,99576.25
2023-04-16T23:24:07.254Z,99569.31
2023-04-16T23:26:52.127Z,99569.53
2023-04-16T23:29:37.138Z,99567.75
2023-04-16T23:32:22.147Z,99568.53
2023-04-16T23:35:07.906Z,99558.88
2023-04-16T23:37:52.728Z,99564.78
2023-04-16T23:40:37.805Z,99554.34
2023-04-16T23:43:22.964Z,99561.44
2023-04-16T23:46:07.386Z,99561.25
2023-04-16T23:48:54.560Z,99561.25
2023-04-16T23:51:39.511Z,99557.66
2023-04-16T23:54:24.292Z,99556.69
2023-04-16T23:57:09.153Z,99550.97
2023-04-16T23:59:54.116Z,99554.53
